This is the latest recevied weather packets stored in our database for station/object E25XKG-2. If no packets are shown the sender has not sent any weather packets the latest 10 day(s).
| Time | Temp. | Humidity | Pressure | Rain* | Wind** | Luminosity | Snow |
|---|---|---|---|---|---|---|---|
| 1778141197 | 41.67° C | 34% | 998 hPa | - | - | 0 W/m² | - |
| 1778139372 | 41.11° C | 35% | 999 hPa | - | - | 0 W/m² | - |
| 1778137547 | 40.56° C | 36% | 999 hPa | - | - | 0 W/m² | - |
| 1778135721 | 40° C | 37% | 1000 hPa | - | - | 0 W/m² | - |
| 1778133896 | 39.44° C | 38% | 1000 hPa | - | - | 0 W/m² | - |
| 1778132070 | 38.89° C | 39% | 1001 hPa | - | - | 0 W/m² | - |
| 1778130245 | 38.33° C | 40% | 1002 hPa | - | - | 0 W/m² | - |
| 1778128419 | 37.78° C | 41% | 1002 hPa | - | - | 0 W/m² | - |
| 1778124769 | 36.67° C | 43% | 1003 hPa | - | - | 0 W/m² | - |
| 1778106515 | 35.56° C | 43% | 1002 hPa | - | - | 0 W/m² | - |
| 1778102866 | 36.11° C | 42% | 1001 hPa | - | - | 0 W/m² | - |
| 1778099209 | 36.67° C | 41% | 1001 hPa | - | - | 0 W/m² | - |
| 1778095558 | 37.22° C | 41% | 1001 hPa | - | - | 0 W/m² | - |
| 1778088257 | 38.33° C | 39% | 1001 hPa | - | - | 0 W/m² | - |
| 1778084705 | 38.89° C | 38% | 1002 hPa | - | - | 0 W/m² | - |
| 1778073654 | 40.56° C | 34% | 1000 hPa | - | - | 0 W/m² | - |
| 1778070003 | 41.67° C | 33% | 999 hPa | - | - | 0 W/m² | - |
| 1778068177 | 42.22° C | 32% | 999 hPa | - | - | 0 W/m² | - |
| 1778066352 | 42.22° C | 32% | 998 hPa | - | - | 0 W/m² | - |
| 1778055399 | 40.56° C | 35% | 999 hPa | - | - | 0 W/m² | - |
| 1778053574 | 40.56° C | 36% | 1000 hPa | - | - | 0 W/m² | - |
| 1778051748 | 40° C | 37% | 1000 hPa | - | - | 0 W/m² | - |
| 1778049923 | 38.89° C | 38% | 1001 hPa | - | - | 0 W/m² | - |
| 1778048097 | 38.89° C | 39% | 1002 hPa | - | - | 0 W/m² | - |
| 1778046272 | 37.78° C | 40% | 1002 hPa | - | - | 0 W/m² | - |
* Rain since midnight (hover to see other rain measurements)
** Current wind speed in m/s (hover to see current wind gust speed)